sensor_id;sensor_type;location;lat;lon;timestamp;pressure;altitude;pressure_sealevel;temperature;humidity
51526;BME280;37611;51.794;21.590;2023-01-28T00:01:15;100663.54;;;-0.25;100.00
51526;BME280;37611;51.794;21.590;2023-01-28T00:05:16;100662.95;;;-0.27;100.00
51526;BME280;37611;51.794;21.590;2023-01-28T00:09:17;100663.98;;;-0.30;100.00
51526;BME280;37611;51.794;21.590;2023-01-28T00:13:19;100666.94;;;-0.32;100.00
51526;BME280;37611;51.794;21.590;2023-01-28T00:17:20;100674.72;;;-0.28;100.00
51526;BME280;37611;51.794;21.590;2023-01-28T00:21:21;100671.63;;;-0.25;100.00
51526;BME280;37611;51.794;21.590;2023-01-28T00:25:22;100676.92;;;-0.19;100.00
51526;BME280;37611;51.794;21.590;2023-01-28T00:29:23;100674.52;;;-0.16;100.00
51526;BME280;37611;51.794;21.590;2023-01-28T00:33:25;100674.63;;;-0.14;100.00
51526;BME280;37611;51.794;21.590;2023-01-28T00:37:29;100671.64;;;-0.13;100.00
51526;BME280;37611;51.794;21.590;2023-01-28T00:41:30;100670.70;;;-0.11;100.00
51526;BME280;37611;51.794;21.590;2023-01-28T00:45:32;100666.59;;;-0.12;100.00
51526;BME280;37611;51.794;21.590;2023-01-28T00:49:33;100664.34;;;-0.11;100.00
51526;BME280;37611;51.794;21.590;2023-01-28T00:53:35;100666.80;;;-0.13;100.00
51526;BME280;37611;51.794;21.590;2023-01-28T00:57:38;100664.74;;;-0.16;100.00
51526;BME280;37611;51.794;21.590;2023-01-28T01:01:39;100667.41;;;-0.14;100.00
51526;BME280;37611;51.794;21.590;2023-01-28T01:05:40;100669.52;;;-0.16;100.00
51526;BME280;37611;51.794;21.590;2023-01-28T01:09:41;100671.78;;;-0.16;100.00
51526;BME280;37611;51.794;21.590;2023-01-28T01:13:43;100672.55;;;-0.14;100.00
51526;BME280;37611;51.794;21.590;2023-01-28T01:17:46;100671.35;;;-0.14;100.00
51526;BME280;37611;51.794;21.590;2023-01-28T01:21:47;100669.27;;;-0.14;100.00
51526;BME280;37611;51.794;21.590;2023-01-28T01:25:50;100665.21;;;-0.16;100.00
51526;BME280;37611;51.794;21.590;2023-01-28T01:29:51;100665.48;;;-0.17;100.00
51526;BME280;37611;51.794;21.590;2023-01-28T01:33:53;100666.86;;;-0.21;100.00
51526;BME280;37611;51.794;21.590;2023-01-28T01:37:54;100661.32;;;-0.29;100.00
51526;BME280;37611;51.794;21.590;2023-01-28T01:41:55;100661.79;;;-0.28;100.00
51526;BME280;37611;51.794;21.590;2023-01-28T01:45:59;100663.98;;;-0.27;100.00
51526;BME280;37611;51.794;21.590;2023-01-28T01:50:06;100667.44;;;-0.27;100.00
51526;BME280;37611;51.794;21.590;2023-01-28T01:54:10;100672.98;;;-0.24;100.00
51526;BME280;37611;51.794;21.590;2023-01-28T01:58:15;100672.08;;;-0.19;100.00
51526;BME280;37611;51.794;21.590;2023-01-28T02:02:17;100664.77;;;-0.13;100.00
51526;BME280;37611;51.794;21.590;2023-01-28T02:06:19;100664.52;;;-0.12;100.00
51526;BME280;37611;51.794;21.590;2023-01-28T02:10:22;100671.13;;;-0.21;100.00
51526;BME280;37611;51.794;21.590;2023-01-28T02:14:25;100665.45;;;-0.29;100.00
51526;BME280;37611;51.794;21.590;2023-01-28T02:18:28;100664.39;;;-0.40;100.00
51526;BME280;37611;51.794;21.590;2023-01-28T02:27:29;100657.27;;;-0.51;100.00
51526;BME280;37611;51.794;21.590;2023-01-28T02:31:43;100656.17;;;-0.57;100.00
51526;BME280;37611;51.794;21.590;2023-01-28T02:35:50;100659.67;;;-0.59;100.00
51526;BME280;37611;51.794;21.590;2023-01-28T02:40:01;100661.77;;;-0.56;100.00
51526;BME280;37611;51.794;21.590;2023-01-28T02:44:04;100659.36;;;-0.51;100.00
51526;BME280;37611;51.794;21.590;2023-01-28T02:48:05;100658.73;;;-0.48;100.00
51526;BME280;37611;51.794;21.590;2023-01-28T02:57:08;100668.58;;;-0.45;100.00
51526;BME280;37611;51.794;21.590;2023-01-28T03:01:24;100664.67;;;-0.51;100.00
51526;BME280;37611;51.794;21.590;2023-01-28T03:05:37;100664.20;;;-0.56;100.00
51526;BME280;37611;51.794;21.590;2023-01-28T03:09:41;100664.80;;;-0.57;100.00
51526;BME280;37611;51.794;21.590;2023-01-28T03:13:44;100663.35;;;-0.60;100.00
51526;BME280;37611;51.794;21.590;2023-01-28T03:18:14;100665.52;;;-0.58;100.00
51526;BME280;37611;51.794;21.590;2023-01-28T03:22:38;100666.36;;;-0.54;100.00
51526;BME280;37611;51.794;21.590;2023-01-28T03:27:48;100665.83;;;-0.50;100.00
51526;BME280;37611;51.794;21.590;2023-01-28T03:32:06;100671.50;;;-0.45;100.00
51526;BME280;37611;51.794;21.590;2023-01-28T03:36:28;100669.50;;;-0.43;100.00
51526;BME280;37611;51.794;21.590;2023-01-28T03:40:57;100667.44;;;-0.43;100.00
51526;BME280;37611;51.794;21.590;2023-01-28T03:45:00;100672.05;;;-0.42;100.00
51526;BME280;37611;51.794;21.590;2023-01-28T03:49:04;100667.84;;;-0.44;100.00
51526;BME280;37611;51.794;21.590;2023-01-28T03:53:05;100667.98;;;-0.47;100.00
